createdAt,value
2022-10-19T00:01:04.307Z,11.60
2022-10-19T00:03:32.493Z,11.90
2022-10-19T00:06:00.811Z,11.70
2022-10-19T00:08:28.947Z,11.70
2022-10-19T00:10:57.142Z,11.70
2022-10-19T00:13:25.280Z,11.60
2022-10-19T00:15:54.747Z,11.70
2022-10-19T00:18:23.048Z,12.00
2022-10-19T00:20:51.185Z,11.70
2022-10-19T00:23:19.307Z,11.70
2022-10-19T00:25:56.940Z,11.80
2022-10-19T00:28:25.223Z,11.60
2022-10-19T00:30:54.736Z,11.40
2022-10-19T00:33:22.904Z,11.10
2022-10-19T00:35:51.643Z,11.00
2022-10-19T00:38:20.155Z,10.90
2022-10-19T00:40:48.477Z,10.80
2022-10-19T00:43:16.701Z,10.90
2022-10-19T00:45:44.882Z,11.20
2022-10-19T00:48:16.748Z,11.10
2022-10-19T00:50:44.953Z,11.10
2022-10-19T00:53:13.042Z,11.00
2022-10-19T00:55:41.230Z,10.90
2022-10-19T00:58:09.310Z,11.00
2022-10-19T01:00:37.594Z,11.30
2022-10-19T01:03:05.771Z,11.40
2022-10-19T01:05:36.092Z,11.40
2022-10-19T01:08:04.455Z,11.20
2022-10-19T01:10:41.195Z,11.10
2022-10-19T01:13:20.058Z,11.00
2022-10-19T01:18:22.676Z,10.90
2022-10-19T01:21:20.325Z,10.60
2022-10-19T01:24:44.471Z,10.20
2022-10-19T01:27:38.430Z,9.90
2022-10-19T01:30:17.403Z,9.70
2022-10-19T01:32:58.386Z,9.70
2022-10-19T01:35:30.350Z,9.90
2022-10-19T01:38:07.029Z,9.10
2022-10-19T01:40:41.621Z,8.50
2022-10-19T01:43:13.827Z,8.30
2022-10-19T01:45:46.474Z,8.20
2022-10-19T01:48:16.805Z,7.70
2022-10-19T01:50:47.490Z,7.70
2022-10-19T01:53:15.642Z,7.30
2022-10-19T01:55:44.355Z,7.20
2022-10-19T01:58:15.483Z,7.20
2022-10-19T02:00:46.798Z,7.10
2022-10-19T02:03:14.959Z,7.40
2022-10-19T02:05:43.031Z,7.50
2022-10-19T02:08:14.428Z,7.40
2022-10-19T02:10:43.223Z,7.30
2022-10-19T02:13:11.551Z,7.20
2022-10-19T02:15:41.623Z,7.30
2022-10-19T02:18:11.001Z,7.40
2022-10-19T02:20:39.133Z,7.30
2022-10-19T02:23:07.231Z,7.40
2022-10-19T02:25:35.396Z,7.50
2022-10-19T02:28:03.775Z,7.50
2022-10-19T02:30:31.894Z,7.30
2022-10-19T02:32:59.955Z,7.70
2022-10-19T02:35:29.518Z,7.70
2022-10-19T02:37:58.767Z,7.10
2022-10-19T02:40:26.917Z,6.50
2022-10-19T02:42:57.363Z,6.50
2022-10-19T02:45:28.257Z,6.20
2022-10-19T02:47:58.315Z,5.90
2022-10-19T02:50:26.444Z,6.00
2022-10-19T02:52:55.900Z,5.90
2022-10-19T02:55:24.059Z,5.90
2022-10-19T02:57:52.136Z,6.00
2022-10-19T03:00:20.484Z,6.00
2022-10-19T03:02:48.571Z,5.70
2022-10-19T03:05:16.894Z,5.70
2022-10-19T03:07:45.075Z,5.60
2022-10-19T03:10:14.503Z,5.50
2022-10-19T03:12:42.639Z,5.20
2022-10-19T03:15:16.022Z,4.70
2022-10-19T03:17:44.122Z,4.80
2022-10-19T03:20:12.332Z,5.00
2022-10-19T03:22:40.665Z,4.80
2022-10-19T03:25:10.115Z,4.80
2022-10-19T03:27:39.654Z,4.70
2022-10-19T03:30:09.152Z,4.80
2022-10-19T03:32:37.282Z,4.80
2022-10-19T03:35:06.434Z,4.80
2022-10-19T03:37:34.799Z,4.80
2022-10-19T03:40:03.133Z,4.80
2022-10-19T03:42:31.275Z,4.30
2022-10-19T03:45:00.759Z,3.90
2022-10-19T03:47:28.864Z,3.60
2022-10-19T03:49:56.975Z,3.30
2022-10-19T03:52:25.131Z,3.10
2022-10-19T03:54:53.189Z,2.90
2022-10-19T03:57:21.279Z,2.90
2022-10-19T03:59:50.190Z,2.50
2022-10-19T04:02:19.607Z,2.60
2022-10-19T04:04:47.781Z,1.20
2022-10-19T04:07:15.988Z,1.00
2022-10-19T04:09:44.091Z,1.00
2022-10-19T04:12:12.162Z,1.00
2022-10-19T04:14:56.343Z,1.00
2022-10-19T04:17:26.886Z,1.00
2022-10-19T04:19:55.049Z,1.00
2022-10-19T04:22:23.122Z,1.00
2022-10-19T04:24:51.228Z,1.00
2022-10-19T04:27:19.343Z,1.00
2022-10-19T04:29:47.436Z,1.00
2022-10-19T04:32:15.575Z,1.00
2022-10-19T04:34:45.043Z,1.00
2022-10-19T04:37:13.150Z,1.00
2022-10-19T04:39:43.275Z,1.00
2022-10-19T04:42:11.356Z,1.00
2022-10-19T04:44:39.644Z,1.00
2022-10-19T04:47:07.732Z,1.00
2022-10-19T04:49:35.891Z,1.00
2022-10-19T04:52:05.670Z,1.00
2022-10-19T04:54:33.813Z,1.00
2022-10-19T04:57:01.939Z,1.00
2022-10-19T04:59:29.988Z,1.00
2022-10-19T05:01:58.124Z,1.00
2022-10-19T05:04:26.253Z,1.00
2022-10-19T05:06:54.372Z,1.00
2022-10-19T05:09:24.229Z,1.00
2022-10-19T05:11:52.301Z,1.00
2022-10-19T05:14:20.482Z,1.00
2022-10-19T05:16:48.666Z,1.00
2022-10-19T05:19:16.803Z,1.00
2022-10-19T05:21:44.943Z,1.00
2022-10-19T05:24:13.786Z,1.00
2022-10-19T05:26:43.490Z,1.00
2022-10-19T05:29:13.095Z,1.00
2022-10-19T05:31:41.402Z,1.00
2022-10-19T05:34:09.474Z,1.00
2022-10-19T05:36:39.167Z,1.00
2022-10-19T05:39:08.591Z,1.00
2022-10-19T05:41:36.745Z,1.00
2022-10-19T05:44:06.901Z,1.00
2022-10-19T05:46:35.198Z,1.00
2022-10-19T05:49:03.277Z,1.00
2022-10-19T05:51:31.401Z,1.00
2022-10-19T05:53:59.507Z,1.00
2022-10-19T05:56:29.670Z,1.00
2022-10-19T05:58:57.938Z,1.00
2022-10-19T06:01:27.866Z,1.00
2022-10-19T06:03:57.056Z,1.00
2022-10-19T06:06:25.282Z,1.00
2022-10-19T06:08:53.456Z,1.00
2022-10-19T06:11:22.742Z,1.00
2022-10-19T06:13:51.660Z,1.00
2022-10-19T06:16:20.292Z,1.00
2022-10-19T06:18:49.817Z,1.00
2022-10-19T06:21:20.173Z,1.00
2022-10-19T06:23:51.522Z,1.00
2022-10-19T06:26:19.714Z,1.00
2022-10-19T06:28:47.835Z,1.00
2022-10-19T06:31:16.100Z,1.00
2022-10-19T06:33:47.241Z,1.00
2022-10-19T06:36:20.296Z,1.00
2022-10-19T06:38:48.800Z,1.00
2022-10-19T06:41:16.932Z,1.00
2022-10-19T06:43:45.109Z,1.00
2022-10-19T06:46:17.542Z,1.00
2022-10-19T06:48:45.649Z,1.00
2022-10-19T06:51:13.783Z,1.00
2022-10-19T06:53:43.319Z,1.00
2022-10-19T06:56:11.583Z,1.00
2022-10-19T06:58:40.246Z,1.00
2022-10-19T07:01:08.906Z,1.00
2022-10-19T07:03:37.519Z,1.00
2022-10-19T07:06:07.188Z,1.00
2022-10-19T07:08:35.815Z,1.00
2022-10-19T07:11:07.552Z,1.00
2022-10-19T07:13:36.180Z,1.00
2022-10-19T07:16:06.882Z,1.00
2022-10-19T07:18:35.383Z,1.00
2022-10-19T07:21:04.776Z,1.00
2022-10-19T07:23:34.003Z,1.00
2022-10-19T07:26:07.342Z,1.00
2022-10-19T07:28:35.777Z,1.00
2022-10-19T07:31:07.497Z,1.00
2022-10-19T07:33:35.684Z,1.00
2022-10-19T07:36:04.699Z,1.00
2022-10-19T07:38:32.976Z,1.00
2022-10-19T07:41:07.052Z,1.00
2022-10-19T07:43:35.313Z,1.00
2022-10-19T07:46:05.978Z,1.00
2022-10-19T07:48:34.230Z,1.00
2022-10-19T07:51:02.918Z,1.00
2022-10-19T07:53:31.132Z,1.00
2022-10-19T07:56:06.369Z,1.00
2022-10-19T07:58:34.545Z,1.00
2022-10-19T08:01:03.115Z,1.00
2022-10-19T08:04:14.289Z,1.00
2022-10-19T08:06:20.074Z,1.00
2022-10-19T08:08:48.990Z,1.00
2022-10-19T08:11:20.117Z,1.00
2022-10-19T08:13:48.320Z,1.00
2022-10-19T08:16:25.426Z,1.00
2022-10-19T08:18:54.075Z,1.00
2022-10-19T08:21:22.248Z,1.00
2022-10-19T08:23:50.403Z,1.00
2022-10-19T08:26:19.826Z,1.00
2022-10-19T08:28:48.048Z,1.00
2022-10-19T08:31:17.380Z,1.00
2022-10-19T08:33:45.775Z,1.00
2022-10-19T08:36:14.469Z,1.00
2022-10-19T08:38:44.735Z,1.00
2022-10-19T08:41:34.619Z,1.00
2022-10-19T08:44:35.861Z,1.00
2022-10-19T08:47:12.102Z,1.00
2022-10-19T08:49:40.595Z,1.00
2022-10-19T08:52:13.267Z,1.00
2022-10-19T08:54:44.338Z,1.00
2022-10-19T08:57:19.155Z,1.00
2022-10-19T08:59:50.438Z,1.00
2022-10-19T09:02:22.104Z,1.00
2022-10-19T09:04:53.914Z,1.00
2022-10-19T09:07:28.092Z,1.00
2022-10-19T09:09:59.144Z,1.00
2022-10-19T09:12:36.841Z,1.00
2022-10-19T09:15:07.415Z,1.00
2022-10-19T09:17:35.570Z,1.00
2022-10-19T09:20:15.345Z,1.00
2022-10-19T09:22:43.572Z,1.00
2022-10-19T09:25:15.952Z,1.00
2022-10-19T09:27:46.843Z,1.00
2022-10-19T09:30:19.708Z,1.00
2022-10-19T09:32:48.112Z,1.00
2022-10-19T09:35:26.177Z,1.00
2022-10-19T09:37:54.289Z,1.00
2022-10-19T09:40:23.779Z,1.00
2022-10-19T09:42:57.232Z,1.00
2022-10-19T09:45:35.535Z,1.00
2022-10-19T09:48:12.758Z,1.00
2022-10-19T09:50:43.588Z,1.00
2022-10-19T09:53:19.488Z,1.00
2022-10-19T09:58:29.143Z,1.00
2022-10-19T10:01:00.400Z,1.00
2022-10-19T10:03:30.624Z,1.00
2022-10-19T10:06:00.241Z,1.00
2022-10-19T10:08:31.843Z,1.00
2022-10-19T10:11:08.060Z,1.00
2022-10-19T10:13:42.428Z,1.00
2022-10-19T10:16:12.612Z,1.00
2022-10-19T10:18:54.171Z,1.00
2022-10-19T10:21:25.666Z,1.00
2022-10-19T10:24:05.979Z,1.00
2022-10-19T10:26:39.062Z,1.00
2022-10-19T10:29:20.775Z,1.00
2022-10-19T10:31:50.353Z,1.00
2022-10-19T10:34:45.363Z,1.00
2022-10-19T10:37:19.229Z,1.00
2022-10-19T10:39:47.365Z,1.00
2022-10-19T10:42:18.365Z,1.00
2022-10-19T10:44:50.346Z,1.00
2022-10-19T10:47:20.416Z,1.00
2022-10-19T10:49:54.929Z,1.00
2022-10-19T10:52:23.023Z,1.00
2022-10-19T10:55:02.931Z,1.00
2022-10-19T10:57:33.665Z,1.00
2022-10-19T11:00:08.005Z,1.00
2022-10-19T11:02:42.854Z,1.00
2022-10-19T11:05:15.222Z,1.00
2022-10-19T11:07:45.826Z,1.00
2022-10-19T11:10:22.154Z,1.00
2022-10-19T11:12:53.250Z,1.00
2022-10-19T11:15:25.171Z,1.00
2022-10-19T11:17:58.804Z,1.00
2022-10-19T11:20:28.834Z,1.00
2022-10-19T11:23:02.838Z,1.00
2022-10-19T11:25:36.435Z,1.00
2022-10-19T11:28:16.620Z,1.00
2022-10-19T11:30:55.806Z,1.00
2022-10-19T11:33:35.753Z,1.00
2022-10-19T11:36:05.701Z,1.00
2022-10-19T11:38:41.215Z,1.00
2022-10-19T11:41:26.849Z,1.00
2022-10-19T11:44:08.703Z,1.00
2022-10-19T11:46:42.666Z,1.00
2022-10-19T11:49:20.252Z,1.00
2022-10-19T11:51:53.510Z,1.00
2022-10-19T11:54:40.103Z,1.00
2022-10-19T11:57:13.280Z,1.00
2022-10-19T12:00:04.009Z,1.00
2022-10-19T12:03:12.913Z,1.00
2022-10-19T12:05:48.684Z,1.00
2022-10-19T12:08:31.650Z,1.00
2022-10-19T12:11:06.305Z,1.00
2022-10-19T12:13:41.964Z,1.00
2022-10-19T12:16:10.543Z,1.00
2022-10-19T12:18:42.700Z,1.00
2022-10-19T12:21:12.791Z,1.00
2022-10-19T12:23:42.550Z,1.00
2022-10-19T12:26:12.326Z,1.00
2022-10-19T12:28:43.376Z,1.00
2022-10-19T12:31:11.621Z,1.00
2022-10-19T12:33:47.365Z,1.00
2022-10-19T12:36:26.896Z,1.00
2022-10-19T12:39:01.295Z,1.00
2022-10-19T12:41:33.429Z,1.00
2022-10-19T12:44:25.825Z,1.00
2022-10-19T12:47:00.063Z,1.00
2022-10-19T12:49:45.134Z,1.00
2022-10-19T12:52:13.440Z,1.00
2022-10-19T12:54:42.208Z,1.00
2022-10-19T12:57:29.204Z,1.00
2022-10-19T13:00:02.873Z,1.00
2022-10-19T13:05:08.520Z,1.00
2022-10-19T13:07:37.171Z,1.00
2022-10-19T13:10:07.136Z,1.00
2022-10-19T13:12:46.457Z,1.00
2022-10-19T13:15:51.696Z,1.00
2022-10-19T13:19:20.710Z,1.00
2022-10-19T13:22:29.048Z,1.00
2022-10-19T13:25:33.392Z,1.00
2022-10-19T13:28:38.258Z,1.00
2022-10-19T13:31:24.480Z,1.00
2022-10-19T13:33:54.186Z,1.00
2022-10-19T13:36:22.732Z,1.00
2022-10-19T13:39:16.676Z,1.00
2022-10-19T13:41:54.444Z,1.00
2022-10-19T13:44:28.410Z,1.00
2022-10-19T13:47:28.666Z,1.00
2022-10-19T13:50:23.069Z,1.00
2022-10-19T13:53:25.908Z,1.00
2022-10-19T13:56:25.560Z,1.00
2022-10-19T13:59:32.166Z,1.00
2022-10-19T14:02:47.922Z,1.00
2022-10-19T14:05:53.692Z,1.00
2022-10-19T14:09:01.160Z,1.00
2022-10-19T14:11:33.514Z,1.00
2022-10-19T14:14:15.489Z,1.00
2022-10-19T14:16:54.475Z,1.00
2022-10-19T14:19:29.976Z,1.00
2022-10-19T14:21:59.655Z,1.00
2022-10-19T14:24:33.675Z,1.00
2022-10-19T14:27:03.782Z,1.00
2022-10-19T14:29:32.467Z,1.00
2022-10-19T14:32:00.883Z,1.00
2022-10-19T14:34:29.018Z,1.00
2022-10-19T14:36:57.125Z,1.00
2022-10-19T14:39:30.448Z,1.00
2022-10-19T14:42:01.626Z,1.00
2022-10-19T14:44:39.574Z,1.00
2022-10-19T14:47:23.747Z,1.00
2022-10-19T14:49:51.842Z,1.00
2022-10-19T14:52:23.539Z,1.00
2022-10-19T14:54:52.868Z,1.00
2022-10-19T14:57:24.792Z,1.00
2022-10-19T14:59:55.830Z,1.00
2022-10-19T15:02:25.797Z,1.00
2022-10-19T15:04:54.209Z,1.00
2022-10-19T15:07:25.678Z,1.00
2022-10-19T15:09:56.118Z,1.00
2022-10-19T15:12:29.831Z,1.00
2022-10-19T15:14:59.347Z,1.00
2022-10-19T15:17:28.968Z,1.00
2022-10-19T15:19:58.500Z,1.00
2022-10-19T15:22:39.908Z,1.00
2022-10-19T15:25:37.931Z,1.00
2022-10-19T15:28:22.709Z,1.00
2022-10-19T15:31:01.334Z,1.00
2022-10-19T15:33:29.536Z,1.00
2022-10-19T15:36:07.524Z,1.00
2022-10-19T15:38:35.889Z,1.00
2022-10-19T15:41:04.736Z,1.00
2022-10-19T15:43:44.477Z,1.00
2022-10-19T15:46:32.188Z,1.00
2022-10-19T15:49:05.869Z,1.00
2022-10-19T15:51:46.843Z,1.00
2022-10-19T15:54:17.220Z,1.00
2022-10-19T15:56:46.650Z,1.00
2022-10-19T15:59:17.214Z,1.00
2022-10-19T16:01:51.117Z,1.00
2022-10-19T16:04:23.251Z,1.00
2022-10-19T16:06:51.390Z,1.00
2022-10-19T16:09:22.010Z,1.00
2022-10-19T16:11:56.266Z,1.00
2022-10-19T16:14:26.351Z,1.00
2022-10-19T16:16:56.000Z,1.00
2022-10-19T16:19:24.357Z,1.00
2022-10-19T16:21:52.406Z,1.00
2022-10-19T16:24:20.718Z,1.00
2022-10-19T16:26:48.848Z,1.00
2022-10-19T16:29:16.990Z,1.00
2022-10-19T16:31:45.116Z,1.00
2022-10-19T16:34:14.633Z,1.00
2022-10-19T16:36:42.682Z,1.00
2022-10-19T16:39:10.801Z,1.00
2022-10-19T16:44:12.505Z,1.00
2022-10-19T16:46:40.673Z,1.00
2022-10-19T16:49:08.807Z,1.00
2022-10-19T16:51:38.634Z,1.00
2022-10-19T16:54:07.831Z,1.00
2022-10-19T16:56:36.209Z,1.00
2022-10-19T16:59:05.421Z,1.00
2022-10-19T17:01:34.233Z,1.00
2022-10-19T17:04:02.365Z,1.00
2022-10-19T17:06:30.581Z,1.00
2022-10-19T17:09:30.219Z,1.00
2022-10-19T17:11:49.051Z,1.00
2022-10-19T17:14:17.165Z,1.00
2022-10-19T17:16:45.333Z,1.00
2022-10-19T17:19:13.583Z,1.00
2022-10-19T17:21:42.377Z,1.00
2022-10-19T17:24:20.110Z,1.00
2022-10-19T17:26:50.233Z,1.00
2022-10-19T17:29:18.460Z,1.00
2022-10-19T17:31:46.825Z,1.00
2022-10-19T17:34:15.039Z,1.00
2022-10-19T17:36:45.311Z,1.00
2022-10-19T17:39:17.763Z,1.00
2022-10-19T17:41:46.186Z,1.00
2022-10-19T17:44:14.422Z,1.00
2022-10-19T17:46:42.535Z,1.00
2022-10-19T17:49:10.890Z,1.00
2022-10-19T17:51:39.191Z,1.00
2022-10-19T17:54:08.578Z,1.00
2022-10-19T17:56:40.341Z,1.00
2022-10-19T17:59:09.261Z,1.00
2022-10-19T18:01:38.039Z,1.00
2022-10-19T18:04:06.476Z,1.00
2022-10-19T18:06:35.609Z,1.00
2022-10-19T18:09:05.649Z,1.00
2022-10-19T18:11:36.980Z,1.00
2022-10-19T18:14:07.860Z,1.00
2022-10-19T18:16:37.731Z,1.00
2022-10-19T18:19:06.107Z,1.00
2022-10-19T18:21:38.457Z,1.00
2022-10-19T18:24:10.118Z,1.00
2022-10-19T18:26:40.983Z,1.00
2022-10-19T18:29:12.940Z,1.00
2022-10-19T18:31:41.901Z,1.00
2022-10-19T18:34:14.137Z,1.00
2022-10-19T18:36:42.272Z,1.00
2022-10-19T18:39:11.524Z,1.00
2022-10-19T18:41:40.510Z,1.00
2022-10-19T18:44:09.473Z,1.00
2022-10-19T18:46:38.896Z,1.00
2022-10-19T18:49:08.230Z,1.00
2022-10-19T18:51:36.540Z,1.00
2022-10-19T18:54:04.843Z,1.00
2022-10-19T18:56:33.389Z,1.00
2022-10-19T18:59:01.495Z,1.00
2022-10-19T19:01:29.834Z,1.00
2022-10-19T19:04:06.492Z,1.00
2022-10-19T19:06:36.123Z,1.00
2022-10-19T19:09:06.558Z,1.00
2022-10-19T19:11:36.977Z,1.00
2022-10-19T19:14:07.379Z,1.00
2022-10-19T19:16:36.652Z,1.00
2022-10-19T19:19:06.629Z,1.00
2022-10-19T19:21:35.564Z,1.00
2022-10-19T19:24:05.607Z,1.00
2022-10-19T19:26:35.494Z,1.00
2022-10-19T19:29:03.873Z,1.00
2022-10-19T19:31:32.110Z,1.00
2022-10-19T19:34:00.955Z,1.00
2022-10-19T19:36:30.573Z,1.00
2022-10-19T19:38:59.201Z,1.00
2022-10-19T19:41:28.766Z,1.00
2022-10-19T19:43:57.591Z,1.00
2022-10-19T19:46:25.690Z,1.00
2022-10-19T19:48:59.740Z,1.00
2022-10-19T19:51:28.106Z,1.00
2022-10-19T19:53:57.653Z,1.00
2022-10-19T19:56:25.766Z,1.00
2022-10-19T19:58:56.673Z,1.00
2022-10-19T20:01:24.854Z,1.00
2022-10-19T20:03:53.104Z,1.00
2022-10-19T20:06:24.973Z,1.00
2022-10-19T20:08:54.649Z,1.00
2022-10-19T20:11:24.981Z,1.00
2022-10-19T20:13:53.058Z,1.00
2022-10-19T20:16:26.574Z,1.00
2022-10-19T20:18:59.885Z,1.00
2022-10-19T20:21:28.858Z,1.00
2022-10-19T20:23:56.920Z,1.00
2022-10-19T20:26:26.415Z,1.00
2022-10-19T20:28:54.548Z,1.00
2022-10-19T20:31:23.964Z,1.00
2022-10-19T20:33:52.066Z,1.00
2022-10-19T20:36:21.688Z,1.00
2022-10-19T20:38:51.901Z,1.00
2022-10-19T20:41:20.695Z,1.00
2022-10-19T20:43:50.198Z,1.00
2022-10-19T20:46:21.077Z,1.00
2022-10-19T20:48:49.493Z,1.00
2022-10-19T20:51:18.634Z,1.00
2022-10-19T20:53:48.121Z,1.00
2022-10-19T20:56:17.852Z,1.00
2022-10-19T20:58:47.018Z,1.00
2022-10-19T21:01:17.616Z,1.00
2022-10-19T21:03:47.118Z,1.00
2022-10-19T21:06:15.200Z,1.00
2022-10-19T21:08:43.410Z,1.00
2022-10-19T21:11:15.738Z,1.00
2022-10-19T21:13:44.186Z,1.00
2022-10-19T21:16:12.655Z,1.00
2022-10-19T21:18:42.155Z,1.00
2022-10-19T21:21:15.324Z,1.00
2022-10-19T21:23:43.646Z,1.00
2022-10-19T21:26:11.886Z,1.00
2022-10-19T21:28:39.985Z,1.00
2022-10-19T21:31:09.069Z,1.00
2022-10-19T21:33:37.136Z,1.00
2022-10-19T21:36:08.015Z,1.00
2022-10-19T21:38:37.067Z,1.00
2022-10-19T21:41:07.265Z,1.00
2022-10-19T21:43:35.680Z,1.00
2022-10-19T21:46:04.057Z,1.00
2022-10-19T21:48:32.450Z,1.00
2022-10-19T21:51:00.649Z,1.00
2022-10-19T21:53:30.100Z,1.00
2022-10-19T21:55:58.225Z,1.00
2022-10-19T21:58:26.346Z,1.00
2022-10-19T22:00:54.451Z,1.00
2022-10-19T22:03:22.684Z,1.00
2022-10-19T22:05:52.211Z,1.00
2022-10-19T22:08:20.314Z,1.00
2022-10-19T22:10:49.775Z,1.00
2022-10-19T22:13:17.878Z,1.00
2022-10-19T22:15:45.989Z,1.00
2022-10-19T22:18:14.115Z,1.00
2022-10-19T22:20:42.191Z,1.00
2022-10-19T22:23:10.276Z,1.00
2022-10-19T22:25:38.359Z,1.00
2022-10-19T22:28:07.976Z,1.00
2022-10-19T22:30:38.995Z,1.00
2022-10-19T22:33:08.207Z,1.00
2022-10-19T22:35:36.315Z,1.00
2022-10-19T22:38:04.373Z,1.00
2022-10-19T22:40:32.409Z,1.00
2022-10-19T22:43:03.609Z,1.00
2022-10-19T22:45:36.085Z,1.00
2022-10-19T22:48:04.188Z,1.00
2022-10-19T22:50:32.261Z,1.00
2022-10-19T22:53:00.352Z,1.00
2022-10-19T22:55:28.502Z,1.00
2022-10-19T22:57:56.535Z,1.00
2022-10-19T23:00:24.657Z,1.00
2022-10-19T23:02:54.620Z,1.00
2022-10-19T23:05:22.701Z,1.00
2022-10-19T23:07:50.796Z,1.00
2022-10-19T23:10:19.135Z,1.00
2022-10-19T23:12:50.600Z,1.00
2022-10-19T23:15:18.909Z,1.00
2022-10-19T23:17:47.110Z,1.00
2022-10-19T23:20:16.768Z,1.00
2022-10-19T23:22:44.820Z,1.00
2022-10-19T23:25:12.877Z,1.00
2022-10-19T23:27:40.959Z,1.00
2022-10-19T23:30:10.207Z,1.00
2022-10-19T23:32:38.651Z,1.00
2022-10-19T23:35:08.250Z,1.00
2022-10-19T23:37:38.093Z,1.00
2022-10-19T23:40:07.853Z,1.00
2022-10-19T23:42:35.926Z,1.00
2022-10-19T23:45:04.230Z,1.00
2022-10-19T23:47:32.465Z,1.00
2022-10-19T23:50:00.543Z,1.00
2022-10-19T23:52:28.619Z,1.00
2022-10-19T23:54:58.071Z,1.00
2022-10-19T23:57:26.183Z,1.00
2022-10-19T23:59:54.241Z,1.00
